CZVL

Edmonton / Villeneuve Airport

Edmonton, Alberta, Canada
METAR CZVL 162300Z AUTO 21006KT 9SM CLR M01/M09 A2983 RMK SLP133
Observed Flight Rules
Dec-16 @ 23:00 UTC (an hour ago) Visual Flight Rules
Wind Visibility Clouds
210° at 6 knots 9 miles
  • Clear skies
Temperatures Readings
Current -1°C / 30°F
Dewpoint -9°C / 16°F
Humidity 55%
Altimeter 29.83" Hg
Pressure 1013.3 hPa
Elevation 686
METAR CZVL 162300Z AUTO 21006KT 9SM CLR M01/M09 A2983 RMK SLP133
Observed Flight Rules
Dec-16 @ 23:00 UTC
(an hour ago)
VFR
Wind Visibility
210° at 6 knots 9 miles
Clouds
  • Clear skies
Temperature Dewpoint
-1°C / 30°F -9°C / 16°F
Humidity Altimeter Pressure
55% 29.83" Hg 1013.3 hPa